Time;durP1;ratioP1;P1;durP2;ratioP2;P2;SDS_P1;SDS_P2;PMS_P1;PMS_P2;Temp;Humidity;BMP_temperature;BMP_pressure;BME280_temperature;BME280_humidity;BME280_pressure;Samples;Min_cycle;Max_cycle;Signal;HPM_P1;HPM_P2
2022/11/20 00:01:16;;;;;;;6.88;5.43;;;-1.70;99.90;;;;;;4986679;28;20464;-85
2022/11/20 00:03:44;;;;;;;7.97;6.82;;;-1.70;99.90;;;;;;4981536;28;20537;-84
2022/11/20 00:06:14;;;;;;;6.25;5.50;;;-1.70;99.90;;;;;;4969866;28;20062;-86
2022/11/20 00:08:41;;;;;;;7.45;6.13;;;-1.70;99.90;;;;;;4984634;28;20050;-85
2022/11/20 00:11:14;;;;;;;6.53;5.57;;;-1.70;99.90;;;;;;4983597;28;20053;-85
2022/11/20 00:13:43;;;;;;;8.00;5.95;;;-1.70;99.90;;;;;;4968091;28;20046;-85
2022/11/20 00:16:12;;;;;;;6.38;5.78;;;-1.70;99.90;;;;;;4968183;28;20435;-85
2022/11/20 00:18:39;;;;;;;6.53;5.43;;;-1.70;99.90;;;;;;4965896;28;20108;-84
2022/11/20 00:21:10;;;;;;;7.00;6.18;;;-1.70;99.90;;;;;;4983349;28;20092;-84
2022/11/20 00:23:37;;;;;;;7.32;6.55;;;-1.70;99.90;;;;;;4982670;28;20447;-85
2022/11/20 00:26:12;;;;;;;9.57;6.50;;;-1.70;99.90;;;;;;4983572;28;20070;-84
2022/11/20 00:28:40;;;;;;;7.15;6.45;;;-1.70;99.90;;;;;;4966827;28;20444;-84
2022/11/20 00:31:13;;;;;;;9.65;6.10;;;-1.70;99.90;;;;;;4983989;28;20391;-84
2022/11/20 00:33:41;;;;;;;8.07;6.68;;;-1.70;99.90;;;;;;4964746;28;20464;-84
2022/11/20 00:36:14;;;;;;;9.95;5.97;;;-1.70;99.90;;;;;;4980502;28;20176;-85
2022/11/20 00:38:41;;;;;;;7.88;7.03;;;-1.70;99.90;;;;;;4984914;28;20046;-85
2022/11/20 00:41:09;;;;;;;8.32;7.15;;;-1.70;99.90;;;;;;4984157;28;20046;-85
2022/11/20 00:43:38;;;;;;;8.82;7.43;;;-1.70;99.90;;;;;;4973330;28;20150;-85
2022/11/20 00:46:07;;;;;;;7.68;6.70;;;-1.70;99.90;;;;;;4985606;28;20233;-84
2022/11/20 00:48:35;;;;;;;6.60;5.95;;;-1.70;99.90;;;;;;4966414;28;20082;-85
2022/11/20 00:51:02;;;;;;;10.25;6.78;;;-1.70;99.90;;;;;;4980193;28;20329;-84
2022/11/20 00:53:29;;;;;;;8.02;6.68;;;-1.70;99.90;;;;;;4977283;28;20053;-85
2022/11/20 00:56:02;;;;;;;11.27;8.35;;;-1.70;99.90;;;;;;4983897;28;20065;-84
2022/11/20 00:58:31;;;;;;;9.18;7.47;;;-1.70;99.90;;;;;;4951978;28;20076;-84
2022/11/20 01:01:16;;;;;;;11.38;8.02;;;-1.70;99.90;;;;;;4985510;28;20077;-84
2022/11/20 01:03:49;;;;;;;10.82;8.48;;;-1.70;99.90;;;;;;4978692;28;20117;-85
2022/11/20 01:06:20;;;;;;;9.77;7.78;;;-1.70;99.90;;;;;;4982460;28;20467;-84
2022/11/20 01:08:48;;;;;;;11.98;7.15;;;-1.70;99.90;;;;;;4965061;28;20058;-84
2022/11/20 01:11:21;;;;;;;9.65;7.13;;;-1.70;99.90;;;;;;4968067;28;20053;-84
2022/11/20 01:13:50;;;;;;;9.93;7.32;;;-1.70;99.90;;;;;;4978903;28;20514;-84
2022/11/20 01:16:22;;;;;;;8.43;6.97;;;-1.70;99.90;;;;;;4966280;28;20133;-84
2022/11/20 01:18:51;;;;;;;8.13;7.32;;;-1.70;99.90;;;;;;4985975;28;20053;-84
2022/11/20 01:21:21;;;;;;;7.40;6.57;;;-1.70;99.90;;;;;;4974753;28;20065;-84
2022/11/20 01:23:49;;;;;;;7.43;6.47;;;-1.70;99.90;;;;;;4978618;28;20149;-85
2022/11/20 01:26:25;;;;;;;8.20;6.68;;;-1.70;99.90;;;;;;4967626;28;20420;-85
2022/11/20 01:28:55;;;;;;;7.43;6.63;;;-1.70;99.90;;;;;;4967059;28;20408;-84
2022/11/20 01:31:34;;;;;;;7.50;6.65;;;-1.70;99.90;;;;;;4982198;28;20743;-84
2022/11/20 01:34:07;;;;;;;7.22;6.53;;;-1.70;99.90;;;;;;4985059;28;20081;-84
2022/11/20 01:36:36;;;;;;;7.93;6.10;;;-1.70;99.90;;;;;;4985847;28;20157;-85
2022/11/20 01:39:14;;;;;;;10.52;7.32;;;-1.70;99.90;;;;;;4968830;28;20136;-84
2022/11/20 01:44:54;;;;;;;9.30;7.07;;;-1.70;99.90;;;;;;4980840;28;20060;-85
2022/11/20 01:47:36;;;;;;;9.43;6.50;;;-1.70;99.90;;;;;;4946372;28;20054;-84
2022/11/20 01:50:18;;;;;;;9.30;7.22;;;-1.70;99.90;;;;;;4956929;28;20113;-85
2022/11/20 01:53:06;;;;;;;8.93;7.07;;;-1.70;99.90;;;;;;4981848;28;20408;-84
2022/11/20 01:55:39;;;;;;;9.27;7.32;;;-1.70;99.90;;;;;;4978881;28;20060;-84
2022/11/20 01:58:07;;;;;;;9.98;6.38;;;-1.70;99.90;;;;;;4981481;28;20400;-84
2022/11/20 02:00:34;;;;;;;9.60;7.85;;;-1.70;99.90;;;;;;4968951;28;20061;-83
2022/11/20 02:03:06;;;;;;;8.07;6.90;;;-1.70;99.90;;;;;;4983653;28;20054;-83
2022/11/20 02:05:46;;;;;;;8.73;6.53;;;-1.70;99.90;;;;;;4965315;28;20070;-83
2022/11/20 02:08:13;;;;;;;8.75;6.80;;;-1.70;99.90;;;;;;4967010;28;20057;-83
2022/11/20 02:10:40;;;;;;;7.47;6.43;;;-1.70;99.90;;;;;;4980620;28;20062;-83
2022/11/20 02:15:53;;;;;;;8.65;6.65;;;-1.70;99.90;;;;;;4987078;28;20153;-83
2022/11/20 02:18:21;;;;;;;7.25;5.90;;;-1.70;99.90;;;;;;4985253;28;20044;-83
2022/11/20 02:20:54;;;;;;;7.35;6.22;;;-1.70;99.90;;;;;;4985275;28;20112;-83
2022/11/20 02:23:24;;;;;;;10.40;7.60;;;-1.70;99.90;;;;;;4981874;28;20126;-83
2022/11/20 02:25:52;;;;;;;8.90;6.90;;;-1.70;99.90;;;;;;4984853;28;20217;-83
2022/11/20 02:28:20;;;;;;;8.38;6.90;;;-1.70;99.90;;;;;;4984712;28;20057;-83
2022/11/20 02:30:47;;;;;;;8.43;6.65;;;-1.70;99.90;;;;;;4987925;28;20077;-83
2022/11/20 02:33:14;;;;;;;9.18;6.85;;;-1.70;99.90;;;;;;4985161;28;20103;-83
2022/11/20 02:35:44;;;;;;;7.63;6.20;;;-1.70;99.90;;;;;;4986237;28;20058;-83
2022/11/20 02:38:11;;;;;;;;;;;-1.70;99.90;;;;;;4970516;28;20464;-83
2022/11/20 02:40:38;;;;;;;10.20;7.07;;;-1.70;99.90;;;;;;4985527;28;20017;-83
2022/11/20 02:43:05;;;;;;;8.73;6.45;;;-1.70;99.90;;;;;;4978243;28;20494;-83
2022/11/20 02:45:33;;;;;;;9.27;7.93;;;-1.70;99.90;;;;;;4984919;28;20475;-83
2022/11/20 02:48:00;;;;;;;9.85;6.97;;;-1.70;99.90;;;;;;4979094;28;20050;-85
2022/11/20 02:50:27;;;;;;;9.30;7.05;;;-1.70;99.90;;;;;;4979196;28;20427;-83
2022/11/20 02:52:54;;;;;;;9.07;7.68;;;-1.70;99.90;;;;;;4985362;28;20439;-87
2022/11/20 02:55:21;;;;;;;8.95;7.65;;;-1.70;99.90;;;;;;4985119;28;20193;-83
2022/11/20 02:57:47;;;;;;;9.00;6.75;;;-1.70;99.90;;;;;;4965869;28;20512;-82
2022/11/20 03:00:14;;;;;;;8.68;7.60;;;-1.70;99.90;;;;;;4980627;28;20126;-82
2022/11/20 03:02:41;;;;;;;9.38;7.10;;;-1.70;99.90;;;;;;4980808;28;20046;-83
2022/11/20 03:05:08;;;;;;;11.02;8.23;;;-1.70;99.90;;;;;;4982880;28;20058;-83
2022/11/20 03:07:35;;;;;;;12.68;7.72;;;-1.70;99.90;;;;;;4975266;28;20046;-82
2022/11/20 03:10:04;;;;;;;8.88;7.97;;;-1.70;99.90;;;;;;4982895;28;20086;-83
2022/11/20 03:12:31;;;;;;;8.95;7.63;;;-1.70;99.90;;;;;;4977773;28;20157;-82
2022/11/20 03:14:57;;;;;;;10.23;7.35;;;-1.70;99.90;;;;;;4977052;28;20748;-83
2022/11/20 03:17:24;;;;;;;10.15;7.90;;;-1.70;99.90;;;;;;4981887;28;20519;-82
2022/11/20 03:19:51;;;;;;;9.23;8.10;;;-1.70;99.90;;;;;;4983484;28;20145;-83
2022/11/20 03:22:18;;;;;;;7.63;6.88;;;-1.70;99.90;;;;;;4976663;28;20141;-83
2022/11/20 03:24:46;;;;;;;9.27;7.78;;;-1.70;99.90;;;;;;4984428;28;20050;-83
2022/11/20 03:27:13;;;;;;;9.68;7.82;;;-1.70;99.90;;;;;;4980419;28;20133;-82
2022/11/20 03:29:40;;;;;;;10.20;7.82;;;-1.70;99.90;;;;;;4982837;28;20248;-82
2022/11/20 03:32:07;;;;;;;8.05;6.50;;;-1.70;99.90;;;;;;4981052;28;20130;-83
2022/11/20 03:34:33;;;;;;;10.20;7.50;;;-1.70;99.90;;;;;;4980115;28;20038;-84
2022/11/20 03:37:00;;;;;;;8.90;7.05;;;-1.70;99.90;;;;;;4980063;28;20164;-84
2022/11/20 03:39:27;;;;;;;9.13;7.15;;;-1.70;99.90;;;;;;4978855;28;20053;-83
2022/11/20 03:41:54;;;;;;;9.45;8.15;;;-1.70;99.90;;;;;;4980705;28;20071;-82
2022/11/20 03:44:22;;;;;;;9.05;6.82;;;-1.70;99.90;;;;;;5009227;28;20042;-82
2022/11/20 03:46:48;;;;;;;7.13;6.18;;;-1.70;99.90;;;;;;4987682;28;20074;-82
2022/11/20 03:49:15;;;;;;;10.40;8.02;;;-1.70;99.90;;;;;;4989580;23;20047;-64
2022/11/20 03:51:43;;;;;;;9.05;6.85;;;-1.70;99.90;;;;;;4931753;29;20081;-63
2022/11/20 03:54:10;;;;;;;8.45;7.13;;;-1.70;99.90;;;;;;4940550;29;20044;-62
2022/11/20 03:56:39;;;;;;;7.85;6.97;;;-1.70;99.90;;;;;;4942497;29;20051;-66
2022/11/20 03:59:06;;;;;;;11.73;7.35;;;-1.70;99.90;;;;;;4934265;29;21430;-63
2022/11/20 04:01:35;;;;;;;8.98;7.50;;;-1.80;99.90;;;;;;4933308;29;20138;-73
2022/11/20 04:04:03;;;;;;;8.75;7.68;;;-1.70;99.90;;;;;;4938201;29;20409;-68
2022/11/20 04:06:35;;;;;;;9.57;6.75;;;-1.70;99.90;;;;;;4936936;29;21413;-67
2022/11/20 04:09:02;;;;;;;8.48;6.63;;;-1.70;99.90;;;;;;4935983;29;20134;-66
2022/11/20 04:11:31;;;;;;;11.93;8.50;;;-1.70;99.90;;;;;;4938563;29;20094;-67
2022/11/20 04:14:04;;;;;;;9.60;7.50;;;-1.80;99.90;;;;;;4933620;29;20133;-63
2022/11/20 04:16:34;;;;;;;9.68;7.43;;;-1.70;99.90;;;;;;4934327;29;20134;-62
2022/11/20 04:19:03;;;;;;;9.15;7.80;;;-1.80;99.90;;;;;;4935581;29;20039;-74
2022/11/20 04:21:30;;;;;;;9.45;8.38;;;-1.80;99.90;;;;;;4934276;29;20043;-64
2022/11/20 04:23:57;;;;;;;8.57;7.57;;;-1.80;99.90;;;;;;4932997;29;20087;-67
2022/11/20 04:26:26;;;;;;;8.43;7.18;;;-1.80;99.90;;;;;;4937550;29;20224;-65
2022/11/20 04:28:54;;;;;;;9.48;7.72;;;-1.80;99.90;;;;;;4933979;29;20079;-65
2022/11/20 04:31:23;;;;;;;10.38;7.72;;;-1.80;99.90;;;;;;4928965;29;20044;-63
2022/11/20 04:33:50;;;;;;;9.30;7.80;;;-1.80;99.90;;;;;;4926746;29;20069;-63
2022/11/20 04:36:19;;;;;;;10.13;7.90;;;-1.80;99.90;;;;;;4928252;29;20051;-71
2022/11/20 04:38:49;;;;;;;9.98;7.53;;;-1.80;99.90;;;;;;4936026;29;20130;-64
2022/11/20 04:41:25;;;;;;;8.95;7.28;;;-1.80;99.90;;;;;;4933919;29;20500;-64
2022/11/20 04:43:58;;;;;;;9.25;7.55;;;-1.80;99.90;;;;;;4935575;29;20051;-62
2022/11/20 04:46:27;;;;;;;11.27;9.00;;;-1.90;99.90;;;;;;4916353;29;20051;-65
2022/11/20 04:48:54;;;;;;;11.18;8.48;;;-1.80;99.90;;;;;;4934756;29;20130;-71
2022/11/20 04:51:22;;;;;;;11.93;8.68;;;-1.80;99.90;;;;;;4913729;29;20043;-72
2022/11/20 04:53:49;;;;;;;8.30;7.45;;;-1.90;99.90;;;;;;4942446;29;20047;-63
2022/11/20 04:56:16;;;;;;;8.90;6.78;;;-1.90;99.90;;;;;;4937909;29;20043;-64
2022/11/20 04:58:43;;;;;;;11.75;8.77;;;-1.90;99.90;;;;;;4934792;29;20162;-63
2022/11/20 05:01:16;;;;;;;9.30;7.53;;;-1.90;99.90;;;;;;4933387;29;20125;-62
2022/11/20 05:03:44;;;;;;;9.90;8.40;;;-1.90;99.90;;;;;;4934787;29;20039;-65
2022/11/20 05:06:13;;;;;;;9.80;7.88;;;-1.90;99.90;;;;;;4933047;29;21069;-63
2022/11/20 05:08:41;;;;;;;9.63;7.45;;;-1.90;99.90;;;;;;4934988;29;20055;-66
2022/11/20 05:11:11;;;;;;;8.25;7.10;;;-1.90;99.90;;;;;;4933112;29;20061;-63
2022/11/20 05:13:38;;;;;;;10.23;8.65;;;-2.00;99.90;;;;;;4935873;29;20114;-70
2022/11/20 05:16:11;;;;;;;11.93;7.93;;;-2.00;99.90;;;;;;4933826;29;20067;-66
2022/11/20 05:18:39;;;;;;;9.70;7.45;;;-2.00;99.90;;;;;;4933862;29;20085;-63
2022/11/20 05:21:06;;;;;;;8.82;7.82;;;-2.00;99.90;;;;;;4930875;29;20134;-65
2022/11/20 05:23:33;;;;;;;10.15;8.52;;;-2.00;99.90;;;;;;4917532;29;20055;-62
2022/11/20 05:26:01;;;;;;;11.50;7.97;;;-2.00;99.90;;;;;;4936360;29;20058;-65
2022/11/20 05:28:30;;;;;;;10.27;7.40;;;-2.00;99.90;;;;;;4928611;29;20041;-65
2022/11/20 05:31:04;;;;;;;8.63;7.25;;;-2.10;99.90;;;;;;4939499;29;20043;-65
2022/11/20 05:33:32;;;;;;;9.50;8.50;;;-2.10;99.90;;;;;;4933029;29;20137;-64
2022/11/20 05:35:59;;;;;;;9.90;7.78;;;-2.10;99.90;;;;;;4934820;29;20046;-63
2022/11/20 05:38:26;;;;;;;9.40;7.28;;;-2.10;99.90;;;;;;4929991;29;20053;-66
2022/11/20 05:40:53;;;;;;;11.38;6.93;;;-2.10;99.90;;;;;;4934596;29;20134;-71
2022/11/20 05:43:20;;;;;;;8.75;7.45;;;-2.20;99.90;;;;;;4937048;29;20063;-63
2022/11/20 05:45:55;;;;;;;10.75;7.78;;;-2.30;99.90;;;;;;4936647;29;20616;-68
2022/11/20 05:48:22;;;;;;;8.80;7.70;;;-2.30;99.90;;;;;;4939691;28;20044;-67
2022/11/20 05:50:49;;;;;;;8.82;7.35;;;-2.30;99.90;;;;;;4933529;29;20134;-63
2022/11/20 05:53:16;;;;;;;9.32;7.25;;;-2.30;99.90;;;;;;4935648;29;20057;-65
2022/11/20 05:55:43;;;;;;;8.43;6.60;;;-2.30;99.90;;;;;;4927554;29;20123;-66
2022/11/20 05:58:10;;;;;;;9.02;7.03;;;-2.40;99.90;;;;;;4934754;29;20057;-63
2022/11/20 06:00:37;;;;;;;8.63;6.55;;;-2.40;99.90;;;;;;4935986;29;20196;-64
2022/11/20 06:03:04;;;;;;;9.02;6.68;;;-2.50;99.90;;;;;;4937831;29;20054;-72
2022/11/20 06:05:33;;;;;;;8.18;6.05;;;-2.40;99.90;;;;;;4942319;29;20054;-64
2022/11/20 06:08:00;;;;;;;8.27;6.50;;;-2.50;99.90;;;;;;4937337;29;20408;-63
2022/11/20 06:10:27;;;;;;;7.55;6.25;;;-2.50;99.90;;;;;;4929687;29;20105;-69
2022/11/20 06:12:57;;;;;;;6.95;6.25;;;-2.40;99.90;;;;;;4927155;29;20402;-63
2022/11/20 06:15:24;;;;;;;;;;;-2.40;99.90;;;;;;4934005;29;20806;-67
2022/11/20 06:17:55;;;;;;;7.88;7.03;;;-2.40;99.90;;;;;;4934205;29;19930;-61
2022/11/20 06:20:22;;;;;;;8.00;6.57;;;-2.40;99.90;;;;;;4935010;29;20130;-64
2022/11/20 06:22:49;;;;;;;11.57;8.20;;;-2.40;99.90;;;;;;4932381;29;20063;-63
2022/11/20 06:25:16;;;;;;;9.88;8.05;;;-2.40;99.90;;;;;;4930808;29;20476;-66
2022/11/20 06:27:42;;;;;;;10.60;9.00;;;-2.40;99.90;;;;;;4933998;29;20153;-63
2022/11/20 06:30:10;;;;;;;11.90;9.55;;;-2.40;99.90;;;;;;4936293;29;20057;-66
2022/11/20 06:32:37;;;;;;;10.73;9.30;;;-2.40;99.90;;;;;;4931924;29;20637;-67
2022/11/20 06:35:04;;;;;;;12.80;9.88;;;-2.40;99.90;;;;;;4938172;29;20142;-62
2022/11/20 06:37:31;;;;;;;11.48;8.98;;;-2.40;99.90;;;;;;4933838;28;20677;-66
2022/11/20 06:39:58;;;;;;;12.77;9.35;;;-2.40;99.90;;;;;;4937228;29;20423;-64
2022/11/20 06:42:25;;;;;;;14.35;10.13;;;-2.40;99.90;;;;;;4932183;29;20138;-66
2022/11/20 06:44:51;;;;;;;13.93;10.20;;;-2.40;99.90;;;;;;4937521;29;20455;-63
2022/11/20 06:47:18;;;;;;;11.02;8.50;;;-2.40;99.90;;;;;;4936609;29;20054;-65
2022/11/20 06:49:48;;;;;;;11.43;8.32;;;-2.40;99.90;;;;;;4935049;29;20047;-63
2022/11/20 06:52:15;;;;;;;11.60;9.05;;;-2.40;99.90;;;;;;4927971;29;20054;-63
2022/11/20 06:54:42;;;;;;;10.32;9.10;;;-2.30;99.90;;;;;;4931372;29;20510;-64
2022/11/20 06:57:09;;;;;;;10.45;7.65;;;-2.30;99.90;;;;;;4933584;29;20048;-66
2022/11/20 06:59:36;;;;;;;9.38;7.90;;;-2.30;99.90;;;;;;4940326;29;20416;-63
2022/11/20 07:02:03;;;;;;;9.70;7.68;;;-2.30;99.90;;;;;;4934190;29;20106;-67
2022/11/20 07:04:30;;;;;;;9.07;8.13;;;-2.30;99.90;;;;;;4940924;29;20049;-70
2022/11/20 07:06:57;;;;;;;9.60;7.40;;;-2.30;99.90;;;;;;4936658;29;20051;-68
2022/11/20 07:09:24;;;;;;;8.27;7.13;;;-2.20;99.90;;;;;;4937601;29;20066;-68
2022/11/20 07:11:51;;;;;;;10.35;8.63;;;-2.20;99.90;;;;;;4934596;29;20051;-63
2022/11/20 07:14:18;;;;;;;10.13;8.68;;;-2.20;99.90;;;;;;4933647;29;20103;-66
2022/11/20 07:16:45;;;;;;;9.20;8.15;;;-2.10;99.90;;;;;;4939477;29;20086;-63
2022/11/20 07:19:12;;;;;;;9.05;8.13;;;-2.10;99.90;;;;;;4933668;29;20062;-65
2022/11/20 07:21:39;;;;;;;8.20;7.18;;;-2.00;99.90;;;;;;4931667;29;20147;-63
2022/11/20 07:24:06;;;;;;;10.02;8.32;;;-2.00;99.90;;;;;;4939668;29;20134;-67
2022/11/20 07:26:33;;;;;;;10.65;8.57;;;-2.00;99.90;;;;;;4934521;29;20561;-62
2022/11/20 07:29:00;;;;;;;10.65;8.57;;;-2.00;99.90;;;;;;4926950;29;20155;-74
2022/11/20 07:31:27;;;;;;;15.82;11.10;;;-1.90;99.90;;;;;;4931715;29;20079;-65
2022/11/20 07:33:54;;;;;;;16.08;12.57;;;-1.90;99.90;;;;;;4939078;29;20049;-63
2022/11/20 07:36:21;;;;;;;20.88;13.20;;;-1.80;99.90;;;;;;4938089;29;20086;-66
2022/11/20 07:38:48;;;;;;;14.60;12.38;;;-1.80;99.90;;;;;;4941370;29;20059;-66
2022/11/20 07:41:15;;;;;;;16.65;12.43;;;-1.70;99.90;;;;;;4934313;29;20055;-63
2022/11/20 07:43:42;;;;;;;20.15;15.27;;;-1.70;99.90;;;;;;4935745;29;20083;-62
2022/11/20 07:46:09;;;;;;;16.70;14.40;;;-1.70;99.90;;;;;;4937374;29;20465;-69
2022/11/20 07:48:36;;;;;;;19.77;14.55;;;-1.60;99.90;;;;;;4937156;29;20052;-65
2022/11/20 07:51:02;;;;;;;18.20;15.32;;;-1.60;99.90;;;;;;4939636;29;20051;-63
2022/11/20 07:53:29;;;;;;;16.20;13.55;;;-1.60;99.90;;;;;;4937669;29;20183;-65
2022/11/20 07:56:00;;;;;;;13.55;11.40;;;-1.50;99.90;;;;;;4935616;29;20102;-63
2022/11/20 07:58:29;;;;;;;13.82;10.65;;;-1.40;99.90;;;;;;4933447;29;20051;-64
2022/11/20 08:00:56;;;;;;;11.13;9.13;;;-1.30;99.90;;;;;;4930881;29;20494;-68
2022/11/20 08:03:23;;;;;;;13.07;10.23;;;-1.30;99.90;;;;;;4923146;29;20062;-65
2022/11/20 08:05:52;;;;;;;16.17;9.90;;;-1.30;99.90;;;;;;4923514;29;20085;-68
2022/11/20 08:08:19;;;;;;;12.77;9.88;;;-1.30;99.90;;;;;;4930019;29;20142;-63
2022/11/20 08:10:46;;;;;;;11.77;8.70;;;-1.20;99.90;;;;;;4935518;28;20052;-63
2022/11/20 08:15:58;;;;;;;11.15;8.18;;;-1.20;99.90;;;;;;4930608;29;20050;-64
2022/11/20 08:18:25;;;;;;;12.43;8.93;;;-1.20;99.90;;;;;;4926466;29;20046;-63
2022/11/20 08:21:01;;;;;;;12.50;9.13;;;-1.20;99.90;;;;;;4926035;29;20055;-68
2022/11/20 08:23:28;;;;;;;12.35;10.55;;;-1.20;99.90;;;;;;4924594;29;20541;-65
2022/11/20 08:25:55;;;;;;;11.43;9.20;;;-1.20;99.90;;;;;;4930986;29;20074;-65
2022/11/20 08:28:22;;;;;;;13.18;10.45;;;-1.10;99.90;;;;;;4929364;28;20051;-63
2022/11/20 08:30:49;;;;;;;14.10;11.55;;;-1.10;99.90;;;;;;4934296;28;20067;-64
2022/11/20 08:33:18;;;;;;;13.57;10.60;;;-1.10;99.90;;;;;;4929366;29;20059;-65
2022/11/20 08:35:45;;;;;;;15.90;11.88;;;-1.10;99.90;;;;;;4933748;29;20043;-62
2022/11/20 08:38:12;;;;;;;12.35;10.05;;;-1.10;99.90;;;;;;4931451;29;20054;-64
2022/11/20 08:40:39;;;;;;;14.02;11.38;;;-1.10;99.90;;;;;;4932513;29;20039;-62
2022/11/20 08:43:06;;;;;;;11.55;8.93;;;-1.10;99.90;;;;;;4936986;29;20051;-67
2022/11/20 08:45:33;;;;;;;10.35;8.73;;;-1.00;99.90;;;;;;4930351;29;20063;-62
2022/11/20 08:48:02;;;;;;;12.27;9.50;;;-1.00;99.90;;;;;;4936455;29;20039;-63
2022/11/20 08:50:31;;;;;;;14.60;10.80;;;-0.90;99.90;;;;;;4938120;29;20158;-67
2022/11/20 08:53:05;;;;;;;18.73;11.25;;;-0.90;99.90;;;;;;4934442;29;20398;-63
2022/11/20 08:55:35;;;;;;;16.33;12.38;;;-0.90;99.90;;;;;;4933034;29;20142;-68
2022/11/20 08:58:06;;;;;;;10.75;8.18;;;-0.80;99.90;;;;;;4930768;29;20043;-62
2022/11/20 09:00:33;;;;;;;13.40;10.48;;;-0.80;99.90;;;;;;4932265;29;20626;-66
2022/11/20 09:03:01;;;;;;;13.55;10.85;;;-0.70;99.90;;;;;;4934925;29;20481;-69
2022/11/20 09:05:29;;;;;;;10.73;9.63;;;-0.70;99.90;;;;;;4936850;29;20074;-67
2022/11/20 09:07:57;;;;;;;11.45;9.73;;;-0.60;99.90;;;;;;4935005;29;20379;-64
2022/11/20 09:10:24;;;;;;;11.43;9.50;;;-0.60;99.90;;;;;;4932897;29;20331;-70
2022/11/20 09:12:57;;;;;;;12.85;9.73;;;-0.50;99.90;;;;;;4931129;29;20136;-63
2022/11/20 09:15:25;;;;;;;10.80;9.73;;;-0.50;99.90;;;;;;4930621;29;20393;-71
2022/11/20 09:17:52;;;;;;;14.45;11.68;;;-0.40;99.90;;;;;;4936296;29;20047;-63
2022/11/20 09:20:19;;;;;;;12.75;11.18;;;-0.40;99.90;;;;;;4932615;29;20051;-64
2022/11/20 09:22:46;;;;;;;16.00;13.88;;;-0.40;99.90;;;;;;4935323;29;20147;-69
2022/11/20 09:25:13;;;;;;;13.38;10.70;;;-0.30;99.90;;;;;;4934458;29;20409;-66
2022/11/20 09:27:43;;;;;;;15.10;10.68;;;-0.30;99.90;;;;;;4934897;29;24976;-70
2022/11/20 09:30:11;;;;;;;12.52;10.85;;;-0.20;99.90;;;;;;4932499;29;20051;-69
2022/11/20 09:32:44;;;;;;;14.27;10.98;;;-0.20;99.90;;;;;;4940024;29;20059;-63
2022/11/20 09:35:11;;;;;;;16.83;10.85;;;-0.20;99.90;;;;;;4935981;29;20079;-65
2022/11/20 09:37:38;;;;;;;14.25;9.30;;;-0.10;99.90;;;;;;4931077;29;20138;-63
2022/11/20 09:40:06;;;;;;;12.80;10.05;;;-0.20;99.90;;;;;;4936574;29;20053;-65
2022/11/20 09:42:52;;;;;;;10.68;9.52;;;-0.10;99.90;;;;;;4936322;29;20047;-69
2022/11/20 09:45:32;;;;;;;11.13;8.55;;;-0.10;99.90;;;;;;4932924;29;20130;-64
2022/11/20 09:48:41;;;;;;;10.73;8.55;;;0.00;99.90;;;;;;4932712;29;20050;-64
2022/11/20 09:51:13;;;;;;;15.40;9.85;;;0.00;99.90;;;;;;4936040;29;20055;-63
2022/11/20 09:53:56;;;;;;;20.42;13.27;;;0.10;99.90;;;;;;4930910;29;21249;-69
2022/11/20 09:56:23;;;;;;;57.70;29.40;;;0.10;99.90;;;;;;4934010;29;20050;-63
2022/11/20 09:58:54;;;;;;;60.13;28.33;;;0.10;99.90;;;;;;4936466;29;20138;-63
2022/11/20 10:01:26;;;;;;;45.50;24.10;;;0.10;99.90;;;;;;4927418;29;20494;-62
2022/11/20 10:03:56;;;;;;;30.45;15.85;;;0.10;99.90;;;;;;4936075;29;20553;-72
2022/11/20 10:06:54;;;;;;;33.33;17.50;;;0.10;99.90;;;;;;4934471;29;20074;-64
2022/11/20 10:09:48;;;;;;;60.17;28.52;;;0.10;99.90;;;;;;4929718;29;20055;-64
2022/11/20 10:12:45;;;;;;;37.67;19.88;;;0.10;99.90;;;;;;4930954;29;20581;-64
2022/11/20 10:15:36;;;;;;;30.23;16.65;;;0.10;99.90;;;;;;4932487;29;20099;-66
2022/11/20 10:18:21;;;;;;;36.38;19.50;;;0.10;99.90;;;;;;4930172;29;20142;-66
2022/11/20 10:21:16;;;;;;;21.73;15.40;;;0.10;99.90;;;;;;4931432;29;20051;-64
2022/11/20 10:23:47;;;;;;;23.38;14.63;;;0.10;99.90;;;;;;4931496;29;20089;-66
2022/11/20 10:26:19;;;;;;;;;;;0.20;99.90;;;;;;4927767;29;20142;-64
2022/11/20 10:28:59;;;;;;;39.60;24.20;;;0.20;99.90;;;;;;4923273;29;19929;-63
2022/11/20 10:31:37;;;;;;;42.78;26.02;;;0.30;99.90;;;;;;4927119;29;20059;-72
2022/11/20 10:34:14;;;;;;;23.38;15.07;;;0.30;99.90;;;;;;4934544;28;20074;-66
2022/11/20 10:37:20;;;;;;;43.30;24.40;;;0.30;99.90;;;;;;4934429;29;20036;-63
2022/11/20 10:40:17;;;;;;;87.55;44.80;;;0.30;99.90;;;;;;4933356;29;20054;-68
2022/11/20 10:42:56;;;;;;;65.32;33.40;;;0.40;99.90;;;;;;4938496;29;20160;-64
2022/11/20 10:45:28;;;;;;;29.45;19.05;;;0.40;99.90;;;;;;4938931;29;20047;-66
2022/11/20 10:48:13;;;;;;;20.45;14.60;;;0.50;99.90;;;;;;4932325;29;21183;-67
2022/11/20 10:50:52;;;;;;;21.50;15.55;;;0.50;99.90;;;;;;4933454;28;20083;-64
2022/11/20 10:53:44;;;;;;;18.38;14.00;;;0.50;99.90;;;;;;4935610;29;20472;-63
2022/11/20 10:56:52;;;;;;;17.20;13.48;;;0.60;99.90;;;;;;4939642;29;20348;-65
2022/11/20 10:59:43;;;;;;;18.17;13.18;;;0.60;99.90;;;;;;4940467;29;20071;-69
2022/11/20 11:02:20;;;;;;;17.58;13.95;;;0.60;99.90;;;;;;4934223;29;20143;-66
2022/11/20 11:04:52;;;;;;;15.85;12.77;;;0.50;99.90;;;;;;4935946;29;20055;-65
2022/11/20 11:07:33;;;;;;;17.30;13.20;;;0.50;99.90;;;;;;4932137;29;20536;-64
2022/11/20 11:10:00;;;;;;;15.40;13.05;;;0.50;99.90;;;;;;4927228;29;20047;-67
2022/11/20 11:12:28;;;;;;;17.58;13.27;;;0.50;99.90;;;;;;4938456;28;20083;-66
2022/11/20 11:14:57;;;;;;;16.48;13.80;;;0.50;99.90;;;;;;4933704;29;20102;-65
2022/11/20 11:17:30;;;;;;;19.48;13.95;;;0.50;99.90;;;;;;4937197;29;20047;-67
2022/11/20 11:20:16;;;;;;;22.65;16.58;;;0.40;99.90;;;;;;4928546;29;20122;-64
2022/11/20 11:22:47;;;;;;;23.48;17.20;;;0.40;99.90;;;;;;4935608;29;20047;-74
2022/11/20 11:25:25;;;;;;;22.67;16.08;;;0.40;99.90;;;;;;4934817;28;20043;-67
2022/11/20 11:27:54;;;;;;;22.13;13.82;;;0.40;99.90;;;;;;4936982;29;20058;-67
2022/11/20 11:30:29;;;;;;;24.30;14.63;;;0.40;99.90;;;;;;4937550;29;20060;-64
2022/11/20 11:33:05;;;;;;;29.00;15.15;;;0.40;99.90;;;;;;4938640;29;20121;-66
2022/11/20 11:35:33;;;;;;;21.42;14.35;;;0.40;99.90;;;;;;4939978;29;20051;-70
2022/11/20 11:38:17;;;;;;;24.58;16.20;;;0.40;99.90;;;;;;4939552;29;20044;-63
2022/11/20 11:40:45;;;;;;;20.25;13.18;;;0.40;99.90;;;;;;4941108;29;20076;-65
2022/11/20 11:46:36;;;;;;;17.75;13.20;;;0.40;99.90;;;;;;4933044;29;20055;-65
2022/11/20 11:49:09;;;;;;;17.48;12.45;;;0.30;99.90;;;;;;4936844;29;20697;-64
2022/11/20 11:51:59;;;;;;;15.55;11.93;;;0.30;99.90;;;;;;4940962;29;20055;-64
2022/11/20 11:54:54;;;;;;;10.90;8.80;;;0.30;99.90;;;;;;4936679;29;20103;-64
2022/11/20 11:57:50;;;;;;;12.73;11.38;;;0.30;99.90;;;;;;4930748;29;20075;-71
2022/11/20 12:00:22;;;;;;;16.33;13.32;;;0.30;99.90;;;;;;4933737;29;20386;-65
2022/11/20 12:03:00;;;;;;;13.85;11.98;;;0.30;99.90;;;;;;4938698;29;20059;-65
2022/11/20 12:05:43;;;;;;;9.70;8.57;;;0.30;99.90;;;;;;4923942;29;20130;-67
2022/11/20 12:08:16;;;;;;;11.50;8.73;;;0.30;99.90;;;;;;4935823;29;20118;-63
2022/11/20 12:11:39;;;;;;;11.98;8.32;;;0.30;99.90;;;;;;4933327;29;20044;-68
2022/11/20 12:14:36;;;;;;;9.40;8.50;;;0.30;99.90;;;;;;4877640;29;20056;-66
2022/11/20 12:17:04;;;;;;;11.00;9.93;;;0.30;99.90;;;;;;4904662;29;20150;-63
2022/11/20 12:19:34;;;;;;;10.07;8.95;;;0.30;99.90;;;;;;4913036;29;20146;-64
2022/11/20 12:22:23;;;;;;;9.82;8.10;;;0.30;99.90;;;;;;4935494;29;20453;-64
2022/11/20 12:24:50;;;;;;;8.70;7.80;;;0.30;99.90;;;;;;4936587;29;20059;-64
2022/11/20 12:27:44;;;;;;;8.52;7.60;;;0.30;99.90;;;;;;4934781;29;20047;-64
2022/11/20 12:30:22;;;;;;;11.57;7.75;;;0.30;99.90;;;;;;4930294;29;20039;-65
2022/11/20 12:33:03;;;;;;;8.10;6.72;;;0.20;99.90;;;;;;4932682;29;20131;-65
2022/11/20 12:35:49;;;;;;;8.70;7.88;;;0.20;99.90;;;;;;4931295;29;20584;-68
2022/11/20 12:38:51;;;;;;;9.38;7.05;;;0.20;99.90;;;;;;4934895;29;20393;-64
2022/11/20 12:45:18;;;;;;;9.45;7.65;;;0.10;99.90;;;;;;4904683;23;20048;-67
2022/11/20 12:48:36;;;;;;;13.82;9.48;;;0.10;99.90;;;;;;4898554;29;20050;-64
2022/11/20 12:51:41;;;;;;;10.20;8.60;;;0.10;99.90;;;;;;4880478;29;20072;-69
2022/11/20 12:54:41;;;;;;;8.13;6.88;;;0.00;99.90;;;;;;4871414;29;20158;-71
2022/11/20 12:57:24;;;;;;;7.70;7.00;;;0.00;99.90;;;;;;4903361;29;20056;-65
2022/11/20 13:00:04;;;;;;;10.40;7.82;;;0.00;99.90;;;;;;4900937;29;20517;-69
2022/11/20 13:02:58;;;;;;;7.73;6.93;;;0.00;99.90;;;;;;4905369;29;20052;-70
2022/11/20 13:05:34;;;;;;;9.45;7.53;;;0.00;99.90;;;;;;4902834;29;20298;-71
2022/11/20 13:08:02;;;;;;;12.02;8.68;;;-0.10;99.90;;;;;;4905434;29;20052;-65
2022/11/20 13:10:51;;;;;;;10.73;8.80;;;-0.20;99.90;;;;;;4900570;29;20451;-67
2022/11/20 13:13:53;;;;;;;11.52;8.40;;;-0.10;99.90;;;;;;4901486;29;20071;-74
2022/11/20 13:16:29;;;;;;;13.98;10.25;;;-0.10;99.90;;;;;;4899856;29;20048;-66
2022/11/20 13:18:56;;;;;;;11.40;8.52;;;-0.20;99.90;;;;;;4897227;29;20060;-66
2022/11/20 13:21:41;;;;;;;13.50;9.40;;;-0.20;99.90;;;;;;4902268;29;20218;-64